createdAt,value
2023-05-09T00:00:23.478Z,18.60
2023-05-09T00:05:25.655Z,19.50
2023-05-09T00:10:27.963Z,17.10
2023-05-09T00:15:30.573Z,19.40
2023-05-09T00:20:34.069Z,18.00
2023-05-09T00:25:35.962Z,19.10
2023-05-09T00:30:37.700Z,19.40
2023-05-09T00:35:40.307Z,18.00
2023-05-09T00:40:42.033Z,18.50
2023-05-09T00:45:45.673Z,21.30
2023-05-09T00:50:52.806Z,20.70
2023-05-09T00:55:56.696Z,20.70
2023-05-09T01:00:59.263Z,22.10
2023-05-09T01:06:10.987Z,22.10
2023-05-09T01:11:34.043Z,20.30
2023-05-09T01:16:42.796Z,20.10
2023-05-09T01:21:49.047Z,17.80
2023-05-09T01:27:06.007Z,25.40
2023-05-09T01:32:11.478Z,25.10
2023-05-09T01:37:15.635Z,24.60
2023-05-09T01:42:20.504Z,23.90
2023-05-09T01:47:23.404Z,24.90
2023-05-09T01:52:26.484Z,25.30
2023-05-09T01:57:30.170Z,21.90
2023-05-09T02:02:32.920Z,28.70
2023-05-09T02:07:36.291Z,23.50
2023-05-09T02:12:38.583Z,24.90
2023-05-09T02:17:40.499Z,19.70
2023-05-09T02:22:43.953Z,22.40
2023-05-09T02:27:46.667Z,22.40
2023-05-09T02:32:50.302Z,22.10
2023-05-09T02:37:53.054Z,24.00
2023-05-09T02:42:55.497Z,26.30
2023-05-09T02:47:57.246Z,23.90
2023-05-09T02:52:58.923Z,20.50
2023-05-09T02:58:12.702Z,21.90
2023-05-09T03:03:18.000Z,23.40
2023-05-09T03:08:20.397Z,20.90
2023-05-09T03:13:22.310Z,24.40
2023-05-09T03:18:24.390Z,30.40
2023-05-09T03:23:26.744Z,22.90
2023-05-09T03:28:28.921Z,23.70
2023-05-09T03:33:33.326Z,29.10
2023-05-09T03:38:36.062Z,26.30
2023-05-09T03:43:38.224Z,22.90
2023-05-09T03:48:39.991Z,25.00
2023-05-09T03:53:41.893Z,19.70
2023-05-09T03:58:44.275Z,26.30
2023-05-09T04:07:13.206Z,30.00
2023-05-09T04:12:15.145Z,24.30
2023-05-09T04:17:17.251Z,18.50
2023-05-09T04:22:48.772Z,18.50
2023-05-09T04:27:51.289Z,20.80
2023-05-09T04:32:55.371Z,17.80
2023-05-09T04:37:57.431Z,18.80
2023-05-09T04:42:59.940Z,16.90
2023-05-09T04:48:04.402Z,17.20
2023-05-09T04:53:08.380Z,23.30
2023-05-09T04:58:10.715Z,11.60
2023-05-09T05:03:13.146Z,14.20
2023-05-09T05:08:15.066Z,18.80
2023-05-09T05:13:27.561Z,14.20
2023-05-09T05:18:31.399Z,11.30
2023-05-09T05:23:33.603Z,13.50
2023-05-09T05:28:35.747Z,13.20
2023-05-09T05:33:38.104Z,10.70
2023-05-09T05:38:40.531Z,11.00
2023-05-09T05:43:42.397Z,9.30
2023-05-09T05:48:44.789Z,12.30
2023-05-09T05:53:46.663Z,15.90
2023-05-09T05:58:48.586Z,11.80
2023-05-09T06:03:54.993Z,9.80
2023-05-09T06:08:58.960Z,13.10
2023-05-09T06:14:00.847Z,9.80
2023-05-09T06:19:02.759Z,13.20
2023-05-09T06:24:11.963Z,11.50
2023-05-09T06:29:16.596Z,8.90
2023-05-09T06:34:18.342Z,8.80
2023-05-09T06:39:20.025Z,13.90
2023-05-09T06:44:21.691Z,9.90
2023-05-09T06:49:23.408Z,7.60
2023-05-09T06:54:25.120Z,14.00
2023-05-09T06:59:27.466Z,11.70
2023-05-09T07:04:29.206Z,10.10
2023-05-09T07:09:31.302Z,7.50
2023-05-09T07:14:32.968Z,7.30
2023-05-09T07:19:34.927Z,11.50
2023-05-09T07:24:36.653Z,10.00
2023-05-09T07:29:38.586Z,11.90
2023-05-09T07:34:40.329Z,8.80
2023-05-09T07:39:42.020Z,6.80
2023-05-09T07:44:43.919Z,10.90
2023-05-09T07:49:46.637Z,8.00
2023-05-09T07:54:48.964Z,10.30
2023-05-09T07:59:50.719Z,6.20
2023-05-09T08:04:52.619Z,10.90
2023-05-09T08:09:54.459Z,6.10
2023-05-09T08:14:56.125Z,5.90
2023-05-09T08:19:58.070Z,3.90
2023-05-09T08:24:59.906Z,6.30
2023-05-09T08:30:01.733Z,5.80
2023-05-09T08:35:03.755Z,4.70
2023-05-09T08:40:10.049Z,5.70
2023-05-09T08:45:16.319Z,4.30
2023-05-09T08:50:18.312Z,5.00
2023-05-09T08:55:20.950Z,8.90
2023-05-09T09:00:23.386Z,4.50
2023-05-09T09:05:40.674Z,6.00
2023-05-09T09:10:47.269Z,3.80
2023-05-09T09:15:53.140Z,5.40
2023-05-09T09:20:59.690Z,9.50
2023-05-09T09:26:05.017Z,4.60
2023-05-09T09:31:24.988Z,7.40
2023-05-09T09:36:29.023Z,5.70
2023-05-09T09:41:32.938Z,6.30
2023-05-09T09:46:51.103Z,5.00
2023-05-09T09:51:55.216Z,6.40
2023-05-09T09:56:57.532Z,5.20
2023-05-09T10:02:04.021Z,5.80
2023-05-09T10:07:12.732Z,12.20
2023-05-09T10:12:19.715Z,3.60
2023-05-09T10:17:22.823Z,3.90
2023-05-09T10:22:25.085Z,8.60
2023-05-09T10:27:28.758Z,7.70
2023-05-09T10:32:48.516Z,3.40
2023-05-09T10:37:50.607Z,3.10
2023-05-09T10:42:52.418Z,2.40
2023-05-09T10:47:56.650Z,2.30
2023-05-09T10:53:07.896Z,2.90
2023-05-09T10:58:29.131Z,3.30
2023-05-09T11:03:54.651Z,3.10
2023-05-09T11:08:56.350Z,3.70
2023-05-09T11:13:58.456Z,5.50
2023-05-09T11:19:00.193Z,2.70
2023-05-09T11:24:16.421Z,4.10
2023-05-09T11:29:18.176Z,2.30
2023-05-09T11:34:20.066Z,1.90
2023-05-09T11:39:25.299Z,2.10
2023-05-09T11:44:28.070Z,4.80
2023-05-09T11:49:29.872Z,3.90
2023-05-09T11:54:31.700Z,3.40
2023-05-09T11:59:34.925Z,1.90
2023-05-09T12:04:36.939Z,6.60
2023-05-09T12:09:38.998Z,5.50
2023-05-09T12:14:41.563Z,2.10
2023-05-09T12:19:44.470Z,2.60
2023-05-09T12:24:46.194Z,2.60
2023-05-09T12:29:48.317Z,4.60
2023-05-09T12:34:50.167Z,4.00
2023-05-09T12:40:12.905Z,5.40
2023-05-09T12:45:15.774Z,4.30
2023-05-09T12:50:17.763Z,2.20
2023-05-09T12:55:20.611Z,2.60
2023-05-09T13:00:22.677Z,2.30
2023-05-09T13:05:24.491Z,2.80
2023-05-09T13:10:29.101Z,2.90
2023-05-09T13:15:31.190Z,2.70
2023-05-09T13:20:32.897Z,3.30
2023-05-09T13:25:34.698Z,2.20
2023-05-09T13:30:36.382Z,1.70
2023-05-09T13:35:38.213Z,2.00
2023-05-09T13:40:40.399Z,2.60
2023-05-09T13:45:42.305Z,4.10
2023-05-09T13:50:44.708Z,2.40
2023-05-09T13:55:47.223Z,1.70
2023-05-09T14:00:48.947Z,2.20
2023-05-09T14:05:51.211Z,4.80
2023-05-09T14:10:52.906Z,3.50
2023-05-09T14:15:54.730Z,2.60
2023-05-09T14:20:56.691Z,3.90
2023-05-09T14:25:58.520Z,1.60
2023-05-09T14:31:00.492Z,1.80
2023-05-09T14:36:03.068Z,2.10
2023-05-09T14:41:05.322Z,2.30
2023-05-09T14:46:07.338Z,2.00
2023-05-09T14:51:09.217Z,3.30
2023-05-09T14:56:14.112Z,4.00
2023-05-09T15:01:16.182Z,4.20
2023-05-09T15:06:18.405Z,3.30
2023-05-09T15:11:20.156Z,4.50
2023-05-09T15:16:21.932Z,2.80
2023-05-09T15:21:24.053Z,3.70
2023-05-09T15:26:26.175Z,8.40
2023-05-09T15:31:33.025Z,2.30
2023-05-09T15:36:34.883Z,4.50
2023-05-09T15:41:36.771Z,2.20
2023-05-09T15:46:38.691Z,2.90
2023-05-09T15:51:40.342Z,2.70
2023-05-09T15:56:42.005Z,2.00
2023-05-09T16:01:43.734Z,3.20
2023-05-09T16:06:45.755Z,4.70
2023-05-09T16:11:47.612Z,2.00
2023-05-09T16:16:51.610Z,2.20
2023-05-09T16:21:53.617Z,3.40
2023-05-09T16:26:55.349Z,2.00
2023-05-09T16:31:57.128Z,2.60
2023-05-09T16:36:58.869Z,5.10
2023-05-09T16:42:00.838Z,9.20
2023-05-09T16:47:02.698Z,2.60
2023-05-09T16:52:04.595Z,1.80
2023-05-09T16:57:06.412Z,6.40
2023-05-09T17:02:08.504Z,3.10
2023-05-09T17:07:12.683Z,5.50
2023-05-09T17:12:17.506Z,4.30
2023-05-09T17:17:19.322Z,2.70
2023-05-09T17:22:21.076Z,3.20
2023-05-09T17:27:23.127Z,5.50
2023-05-09T17:32:25.217Z,1.90
2023-05-09T17:37:26.942Z,3.10
2023-05-09T17:42:28.581Z,6.50
2023-05-09T17:47:30.329Z,5.00
2023-05-09T17:52:32.214Z,3.10
2023-05-09T17:57:33.901Z,6.80
2023-05-09T18:02:35.949Z,7.20
2023-05-09T18:07:39.456Z,7.70
2023-05-09T18:12:41.605Z,4.90
2023-05-09T18:17:43.965Z,6.10
2023-05-09T18:22:47.010Z,10.00
2023-05-09T18:27:48.792Z,5.50
2023-05-09T18:32:50.746Z,4.20
2023-05-09T18:37:52.681Z,14.10
2023-05-09T18:42:54.370Z,3.30
2023-05-09T18:47:56.137Z,4.70
2023-05-09T18:52:59.728Z,4.80
2023-05-09T18:58:09.478Z,4.50
2023-05-09T19:03:14.181Z,6.10
2023-05-09T19:08:16.461Z,7.50
2023-05-09T19:13:18.341Z,6.90
2023-05-09T19:18:20.178Z,10.70
2023-05-09T19:23:21.983Z,8.40
2023-05-09T19:28:24.179Z,6.30
2023-05-09T19:33:25.952Z,6.20
2023-05-09T19:38:27.783Z,10.10
2023-05-09T19:43:29.433Z,7.40
2023-05-09T19:48:31.107Z,7.80
2023-05-09T19:53:32.812Z,7.20
2023-05-09T19:58:35.431Z,4.50
2023-05-09T20:03:38.603Z,5.10
2023-05-09T20:08:40.659Z,6.70
2023-05-09T20:13:43.026Z,7.10
2023-05-09T20:18:44.685Z,5.50
2023-05-09T20:23:46.874Z,10.50
2023-05-09T20:28:48.652Z,8.40
2023-05-09T20:33:51.445Z,6.30
2023-05-09T20:38:53.325Z,6.60
2023-05-09T20:44:03.397Z,6.80
2023-05-09T20:49:05.151Z,8.30
2023-05-09T20:54:07.272Z,7.60
2023-05-09T20:59:08.947Z,7.90
2023-05-09T21:04:10.700Z,11.70
2023-05-09T21:09:14.897Z,6.90
2023-05-09T21:14:23.181Z,8.90
2023-05-09T21:19:24.960Z,9.40
2023-05-09T21:24:26.630Z,8.60
2023-05-09T21:29:28.279Z,10.30
2023-05-09T21:34:29.949Z,15.20
2023-05-09T21:39:37.905Z,9.70
2023-05-09T21:44:40.253Z,14.60
2023-05-09T21:55:04.332Z,10.90
2023-05-09T22:00:08.263Z,15.60
2023-05-09T22:05:14.680Z,12.30
2023-05-09T22:10:16.660Z,10.90
2023-05-09T22:15:19.014Z,10.90
2023-05-09T22:20:21.218Z,8.90
2023-05-09T22:25:22.839Z,7.50
2023-05-09T22:30:24.908Z,11.90
2023-05-09T22:35:26.595Z,13.00
2023-05-09T22:40:29.412Z,10.30
2023-05-09T22:45:31.085Z,12.20
2023-05-09T22:50:32.856Z,10.40
2023-05-09T22:55:34.578Z,14.10
2023-05-09T23:00:36.369Z,13.60
2023-05-09T23:05:38.012Z,10.90
2023-05-09T23:10:46.719Z,13.10
2023-05-09T23:15:53.625Z,15.30
2023-05-09T23:20:55.359Z,10.60
2023-05-09T23:25:56.974Z,12.30
2023-05-09T23:30:58.754Z,9.00
2023-05-09T23:36:00.602Z,13.70
2023-05-09T23:41:04.036Z,13.60
2023-05-09T23:46:18.833Z,15.30
2023-05-09T23:51:23.085Z,13.20
2023-05-09T23:56:25.322Z,17.10
